Record high temperature 45.5°C Record low temperature -0.3°C Record high gust 87.3 km/h Record high average 77.7 km/h Record daily rain 484.8 mm Record low windchill -5.8°C Record high barometer 1043.6 hPa Record low barometer 978.0 hPa
Daily high pressure 1013.1 mb Daily low pressure 1009.2 mb Daily low windchill 11.7°C Daily high heat index 15.3°C Daily high gust speed 24.1 kmh NNW Daily high average speed 10.4 kmh NNW
MeteoMurcia.com
Ultima grabación a: 21:10 Data: 02 December 2022, time of next update: 21:15
Tiempo actualmostly cloudy/Night Temperatura actual12.7°C (54.9°F), Temperatura aparente 11.4°C
Temperatura máxima (desde medianoche)15.3°C at: 13:15 Temperatura mínima (desde medianoche)11.7°C at: 04:42
Velocidad media del viento (diez minutos)7.8 kmh (4.2 kts) Dirección del viento (diez minutos)WNW (299°)
Temperatura aparente 12.7°C ráfagas maxima (última hora)17.9 kmh (9.7 kts) at: 20:35
ráfagas maxima (desde medianoche)24.1 kmh (13.0 kts) at: 11:56 Maximo media de un minuto (desde medianoche)10.4 kmh (5.6 kts) at: 16:42
Lluvia (última hora)0.0 mm Lluvia (desde medianoche)0.2 mm (0.01 in.) at 04:55
Lluvia Este mes 1.0 mm (0.04 in.) Lluvia Hasta la fecha este año464.2 mm (18.28 in.)
Lluvia máxima por minuto (última hora)0.0 mm/min Lluvia maxima por hora (últimas 6 horas)0.0 mm/hora
Lluvia de ayer 0.8 mm Punto de rocío 7.2°C (Wet Bulb :10.0°C )
Humedad 69 %, Humidex 12.8°C Barómetro corregido a msl1009.5 mb
cambio de presión0.1 mb (última hora) Tendencia (últimas 1 hora)ESTACIONARIO
cambio de presión (últimas 12 horas)-2.0 mb cambio de presión (últimas 6 horas)-0.1 mb
Current Temp. Interna 21.7°C
Current Hum. Interna 45%


Última imagen cámara web


Weather report/warning/Metars

Murcia / Alcantarilla, Spain (LERI) 37-57N 001-14W 75M
Dec 02, 2022 - 01:00 PM EST / 2022.12.02 1800 UTC
Wind: from the NNW (330 degrees) at 8 MPH (7 KT):0
Visibility: greater than 7 mile(s):0
Sky conditions: mostly cloudy
Temperature: 55 F (13 C)
Dew Point: 42 F (6 C)
Relative Humidity: 62%
Pressure (altimeter): 29.83 in. Hg (1010 hPa)
ob: LERI 021800Z 33007KT 9999 BKN039 13/06 Q1010 NOSIG
cycle: 18
Station name not available
Dec 02, 2022 - 02:30 PM EST / 2022.12.02 1930 UTC
Wind: from the NNW (340 degrees) at 14 MPH (12 KT) (direction variable):0
Visibility: greater than 7 mile(s):0
Sky conditions: mostly clear
Temperature: 51 F (11 C)
Dew Point: 42 F (6 C)
Relative Humidity: 71%
Pressure (altimeter): 29.83 in. Hg (1010 hPa)
ob: LEMI 021930Z 34012KT 320V020 9999 FEW025 11/06 Q1010
cycle: 19
Alicante / El Altet, Spain (LEAL) 38-17N 000-33W 31M
Dec 02, 2022 - 02:30 PM EST / 2022.12.02 1930 UTC
Wind: from the N (360 degrees) at 3 MPH (3 KT) (direction variable):0
Visibility: greater than 7 mile(s):0
Sky conditions: mostly cloudy
Temperature: 53 F (12 C)
Dew Point: 48 F (9 C)
Relative Humidity: 81%
Pressure (altimeter): 29.83 in. Hg (1010 hPa)
ob: LEAL 021930Z 36003KT 330V050 9999 FEW039 BKN060 12/09 Q1010 NOSIG
cycle: 19



La informacion se graba a intervalos de 2 minutos, pero hay info grabada cada minuto. Optimizado para 800*600 y Color verdadero. Use el boton de

Use the RECARGA en su navegador para recojer la ulima info.

Clicar aquí para regarga diaria de medias/extremas del mes














Created by "Weather Display" software version 10.37S at this start time/date 10:45:25 26/11/2022

La estación de MeteoMurcia.com, publica sus datos en los siguientes proyectos:

Weather Underground PWS IMURCIAP2 Meteoclimatic www.awekas.at

Web Analytics

Clicky